sensor_id;sensor_type;location;lat;lon;timestamp;temperature;humidity
12408;DHT22;6268;48.188;17.134;2024-01-27T07:48:05;8.90;99.90
12408;DHT22;6268;48.188;17.134;2024-01-27T07:50:34;9.10;99.90
12408;DHT22;6268;48.188;17.134;2024-01-27T07:53:03;9.30;99.50
12408;DHT22;6268;48.188;17.134;2024-01-27T07:55:32;9.50;98.10
12408;DHT22;6268;48.188;17.134;2024-01-27T07:58:01;9.60;97.80
12408;DHT22;6268;48.188;17.134;2024-01-27T08:00:29;9.90;96.60
12408;DHT22;6268;48.188;17.134;2024-01-27T08:02:58;10.10;94.40
12408;DHT22;6268;48.188;17.134;2024-01-27T08:05:28;10.20;93.10
12408;DHT22;6268;48.188;17.134;2024-01-27T08:07:56;10.40;92.30
12408;DHT22;6268;48.188;17.134;2024-01-27T08:10:25;10.50;91.50
12408;DHT22;6268;48.188;17.134;2024-01-27T08:12:53;10.50;91.30
12408;DHT22;6268;48.188;17.134;2024-01-27T08:15:22;10.70;90.30
12408;DHT22;6268;48.188;17.134;2024-01-27T08:17:50;10.80;90.10
12408;DHT22;6268;48.188;17.134;2024-01-27T08:20:19;11.00;88.20
12408;DHT22;6268;48.188;17.134;2024-01-27T08:22:49;11.20;86.20
12408;DHT22;6268;48.188;17.134;2024-01-27T08:25:18;11.30;84.40
12408;DHT22;6268;48.188;17.134;2024-01-27T08:27:47;11.40;81.40
12408;DHT22;6268;48.188;17.134;2024-01-27T08:30:15;11.50;80.40
12408;DHT22;6268;48.188;17.134;2024-01-27T08:32:44;11.50;79.60
12408;DHT22;6268;48.188;17.134;2024-01-27T08:35:13;11.60;78.80
12408;DHT22;6268;48.188;17.134;2024-01-27T08:37:42;11.60;77.30
12408;DHT22;6268;48.188;17.134;2024-01-27T08:40:12;11.50;77.40
12408;DHT22;6268;48.188;17.134;2024-01-27T08:42:41;11.70;78.20
12408;DHT22;6268;48.188;17.134;2024-01-27T08:45:10;12.00;76.50
12408;DHT22;6268;48.188;17.134;2024-01-27T08:47:39;12.00;75.00
12408;DHT22;6268;48.188;17.134;2024-01-27T08:50:08;12.00;74.10
12408;DHT22;6268;48.188;17.134;2024-01-27T08:52:37;12.10;74.90
12408;DHT22;6268;48.188;17.134;2024-01-27T08:55:06;12.30;73.90
12408;DHT22;6268;48.188;17.134;2024-01-27T08:57:37;12.30;72.70
12408;DHT22;6268;48.188;17.134;2024-01-27T09:00:06;12.30;72.50
12408;DHT22;6268;48.188;17.134;2024-01-27T09:02:35;12.30;72.50
12408;DHT22;6268;48.188;17.134;2024-01-27T09:05:04;12.50;72.40
12408;DHT22;6268;48.188;17.134;2024-01-27T09:07:33;12.80;71.70
12408;DHT22;6268;48.188;17.134;2024-01-27T09:10:02;13.00;69.80
12408;DHT22;6268;48.188;17.134;2024-01-27T09:12:31;13.00;70.10
12408;DHT22;6268;48.188;17.134;2024-01-27T09:15:01;12.90;69.20
12408;DHT22;6268;48.188;17.134;2024-01-27T09:17:30;13.10;69.30
12408;DHT22;6268;48.188;17.134;2024-01-27T09:19:58;13.20;67.80
12408;DHT22;6268;48.188;17.134;2024-01-27T09:22:27;13.30;68.50
12408;DHT22;6268;48.188;17.134;2024-01-27T09:24:55;13.40;67.60
12408;DHT22;6268;48.188;17.134;2024-01-27T09:27:24;13.50;66.10
12408;DHT22;6268;48.188;17.134;2024-01-27T09:29:52;13.70;66.30
12408;DHT22;6268;48.188;17.134;2024-01-27T09:32:22;13.80;65.80
12408;DHT22;6268;48.188;17.134;2024-01-27T09:34:51;13.80;64.30
12408;DHT22;6268;48.188;17.134;2024-01-27T09:37:21;13.70;64.60
12408;DHT22;6268;48.188;17.134;2024-01-27T09:39:54;13.70;63.60
12408;DHT22;6268;48.188;17.134;2024-01-27T09:42:23;13.60;63.70
12408;DHT22;6268;48.188;17.134;2024-01-27T09:44:53;13.70;63.30
12408;DHT22;6268;48.188;17.134;2024-01-27T09:47:25;13.60;64.00
12408;DHT22;6268;48.188;17.134;2024-01-27T09:49:54;13.40;63.00
12408;DHT22;6268;48.188;17.134;2024-01-27T09:52:23;13.40;64.00
12408;DHT22;6268;48.188;17.134;2024-01-27T09:54:51;13.40;63.20
12408;DHT22;6268;48.188;17.134;2024-01-27T09:57:20;13.40;61.70
12408;DHT22;6268;48.188;17.134;2024-01-27T09:59:49;13.30;61.20
12408;DHT22;6268;48.188;17.134;2024-01-27T10:02:18;13.40;59.60
12408;DHT22;6268;48.188;17.134;2024-01-27T10:04:50;13.20;61.80
12408;DHT22;6268;48.188;17.134;2024-01-27T10:07:19;13.30;59.90
12408;DHT22;6268;48.188;17.134;2024-01-27T10:09:49;13.10;60.00
12408;DHT22;6268;48.188;17.134;2024-01-27T10:12:18;13.10;60.80
12408;DHT22;6268;48.188;17.134;2024-01-27T10:14:49;12.90;60.30
12408;DHT22;6268;48.188;17.134;2024-01-27T10:17:23;12.80;60.80
12408;DHT22;6268;48.188;17.134;2024-01-27T10:20:04;13.00;61.30
12408;DHT22;6268;48.188;17.134;2024-01-27T10:22:39;13.10;60.80
12408;DHT22;6268;48.188;17.134;2024-01-27T10:25:08;13.20;59.90
12408;DHT22;6268;48.188;17.134;2024-01-27T10:27:37;13.20;58.50
12408;DHT22;6268;48.188;17.134;2024-01-27T10:30:15;12.90;58.20
12408;DHT22;6268;48.188;17.134;2024-01-27T10:32:54;12.80;58.60
12408;DHT22;6268;48.188;17.134;2024-01-27T10:35:26;12.90;59.30
12408;DHT22;6268;48.188;17.134;2024-01-27T10:37:55;13.00;60.80
12408;DHT22;6268;48.188;17.134;2024-01-27T10:40:26;13.20;65.80
12408;DHT22;6268;48.188;17.134;2024-01-27T10:43:01;13.20;66.70
12408;DHT22;6268;48.188;17.134;2024-01-27T10:45:34;13.20;65.30
12408;DHT22;6268;48.188;17.134;2024-01-27T10:48:05;13.20;67.10
12408;DHT22;6268;48.188;17.134;2024-01-27T10:50:37;13.30;66.50
12408;DHT22;6268;48.188;17.134;2024-01-27T10:53:21;13.30;65.60
12408;DHT22;6268;48.188;17.134;2024-01-27T10:55:53;13.40;63.50
12408;DHT22;6268;48.188;17.134;2024-01-27T10:58:23;13.20;62.60
12408;DHT22;6268;48.188;17.134;2024-01-27T11:00:53;13.20;63.50
12408;DHT22;6268;48.188;17.134;2024-01-27T11:03:25;13.10;63.10
12408;DHT22;6268;48.188;17.134;2024-01-27T11:05:56;13.00;64.00
12408;DHT22;6268;48.188;17.134;2024-01-27T11:08:25;13.00;61.80
12408;DHT22;6268;48.188;17.134;2024-01-27T11:10:58;13.00;60.80
12408;DHT22;6268;48.188;17.134;2024-01-27T11:13:27;12.80;60.20
12408;DHT22;6268;48.188;17.134;2024-01-27T11:15:56;12.60;60.20
12408;DHT22;6268;48.188;17.134;2024-01-27T11:18:27;12.40;60.90
12408;DHT22;6268;48.188;17.134;2024-01-27T11:20:59;12.50;61.60
12408;DHT22;6268;48.188;17.134;2024-01-27T11:23:35;12.40;61.00
12408;DHT22;6268;48.188;17.134;2024-01-27T11:26:04;12.40;61.60
12408;DHT22;6268;48.188;17.134;2024-01-27T11:28:33;12.40;61.40
12408;DHT22;6268;48.188;17.134;2024-01-27T11:31:06;12.40;61.40
12408;DHT22;6268;48.188;17.134;2024-01-27T11:33:41;12.30;60.50
12408;DHT22;6268;48.188;17.134;2024-01-27T11:36:20;12.40;60.80
12408;DHT22;6268;48.188;17.134;2024-01-27T11:38:50;12.40;60.10
12408;DHT22;6268;48.188;17.134;2024-01-27T11:41:26;12.40;65.60
12408;DHT22;6268;48.188;17.134;2024-01-27T11:43:56;12.60;66.20
12408;DHT22;6268;48.188;17.134;2024-01-27T11:46:25;12.60;60.30
12408;DHT22;6268;48.188;17.134;2024-01-27T11:48:54;12.50;59.80
12408;DHT22;6268;48.188;17.134;2024-01-27T11:51:25;12.30;59.80
12408;DHT22;6268;48.188;17.134;2024-01-27T11:53:53;12.20;60.40
12408;DHT22;6268;48.188;17.134;2024-01-27T11:56:22;12.30;60.60
12408;DHT22;6268;48.188;17.134;2024-01-27T11:58:50;12.10;60.40
12408;DHT22;6268;48.188;17.134;2024-01-27T12:01:19;11.90;60.50
12408;DHT22;6268;48.188;17.134;2024-01-27T12:03:47;11.70;61.20
12408;DHT22;6268;48.188;17.134;2024-01-27T12:06:17;11.60;61.60
12408;DHT22;6268;48.188;17.134;2024-01-27T12:08:47;11.60;62.10
12408;DHT22;6268;48.188;17.134;2024-01-27T12:11:16;11.60;62.30
12408;DHT22;6268;48.188;17.134;2024-01-27T12:13:51;11.60;62.40
12408;DHT22;6268;48.188;17.134;2024-01-27T12:16:21;11.50;61.80
12408;DHT22;6268;48.188;17.134;2024-01-27T12:18:52;11.50;62.40
12408;DHT22;6268;48.188;17.134;2024-01-27T12:21:21;11.40;62.40
12408;DHT22;6268;48.188;17.134;2024-01-27T12:23:53;11.30;62.90
12408;DHT22;6268;48.188;17.134;2024-01-27T12:26:23;11.30;62.80
12408;DHT22;6268;48.188;17.134;2024-01-27T12:28:54;11.10;62.90
12408;DHT22;6268;48.188;17.134;2024-01-27T12:31:25;11.10;63.30
12408;DHT22;6268;48.188;17.134;2024-01-27T12:33:56;11.00;63.70
12408;DHT22;6268;48.188;17.134;2024-01-27T12:36:26;11.10;64.10
12408;DHT22;6268;48.188;17.134;2024-01-27T12:38:58;11.00;64.10
12408;DHT22;6268;48.188;17.134;2024-01-27T12:41:27;11.00;64.50
12408;DHT22;6268;48.188;17.134;2024-01-27T12:43:56;10.90;64.50
12408;DHT22;6268;48.188;17.134;2024-01-27T12:46:25;10.80;64.30
12408;DHT22;6268;48.188;17.134;2024-01-27T12:48:53;10.80;64.50
12408;DHT22;6268;48.188;17.134;2024-01-27T12:51:22;10.80;65.10
12408;DHT22;6268;48.188;17.134;2024-01-27T12:53:51;10.90;65.20
12408;DHT22;6268;48.188;17.134;2024-01-27T12:56:22;10.80;64.50
12408;DHT22;6268;48.188;17.134;2024-01-27T12:58:50;10.60;65.00
12408;DHT22;6268;48.188;17.134;2024-01-27T13:01:19;10.50;65.50
12408;DHT22;6268;48.188;17.134;2024-01-27T13:03:47;10.40;66.30
12408;DHT22;6268;48.188;17.134;2024-01-27T13:06:17;10.40;66.10
12408;DHT22;6268;48.188;17.134;2024-01-27T13:08:47;10.40;66.90
12408;DHT22;6268;48.188;17.134;2024-01-27T13:11:16;10.30;67.10
12408;DHT22;6268;48.188;17.134;2024-01-27T13:13:46;10.30;68.10
12408;DHT22;6268;48.188;17.134;2024-01-27T13:16:17;10.30;68.70
12408;DHT22;6268;48.188;17.134;2024-01-27T13:18:45;10.20;68.30
12408;DHT22;6268;48.188;17.134;2024-01-27T13:21:14;10.20;68.30
12408;DHT22;6268;48.188;17.134;2024-01-27T13:23:43;10.00;68.30
12408;DHT22;6268;48.188;17.134;2024-01-27T13:26:11;9.90;70.20
12408;DHT22;6268;48.188;17.134;2024-01-27T13:28:47;9.90;71.00
12408;DHT22;6268;48.188;17.134;2024-01-27T13:31:17;9.90;81.30
12408;DHT22;6268;48.188;17.134;2024-01-27T13:33:46;10.00;73.90
12408;DHT22;6268;48.188;17.134;2024-01-27T13:36:15;9.90;73.10
12408;DHT22;6268;48.188;17.134;2024-01-27T13:38:45;9.70;72.80
12408;DHT22;6268;48.188;17.134;2024-01-27T13:41:14;9.70;73.50
12408;DHT22;6268;48.188;17.134;2024-01-27T13:43:43;9.70;73.70
12408;DHT22;6268;48.188;17.134;2024-01-27T13:46:12;9.70;74.20
12408;DHT22;6268;48.188;17.134;2024-01-27T13:48:41;9.50;74.60
12408;DHT22;6268;48.188;17.134;2024-01-27T13:51:10;9.50;75.00
12408;DHT22;6268;48.188;17.134;2024-01-27T13:53:39;9.50;75.80
12408;DHT22;6268;48.188;17.134;2024-01-27T13:56:14;9.50;76.30
12408;DHT22;6268;48.188;17.134;2024-01-27T13:58:42;9.50;76.00
12408;DHT22;6268;48.188;17.134;2024-01-27T14:01:12;9.50;75.90
12408;DHT22;6268;48.188;17.134;2024-01-27T14:03:41;9.50;75.80
12408;DHT22;6268;48.188;17.134;2024-01-27T14:06:10;9.50;76.40
12408;DHT22;6268;48.188;17.134;2024-01-27T14:08:40;9.50;76.40
12408;DHT22;6268;48.188;17.134;2024-01-27T14:11:09;9.60;76.60
12408;DHT22;6268;48.188;17.134;2024-01-27T14:13:37;9.50;76.90
12408;DHT22;6268;48.188;17.134;2024-01-27T14:16:06;9.50;77.00
12408;DHT22;6268;48.188;17.134;2024-01-27T14:18:36;9.50;78.60
12408;DHT22;6268;48.188;17.134;2024-01-27T14:21:05;9.50;78.50
12408;DHT22;6268;48.188;17.134;2024-01-27T14:23:33;9.60;78.50
12408;DHT22;6268;48.188;17.134;2024-01-27T14:26:02;9.60;78.80
12408;DHT22;6268;48.188;17.134;2024-01-27T14:28:30;9.50;80.30
12408;DHT22;6268;48.188;17.134;2024-01-27T14:30:59;9.60;79.50
12408;DHT22;6268;48.188;17.134;2024-01-27T14:33:27;9.60;79.50
12408;DHT22;6268;48.188;17.134;2024-01-27T14:35:57;9.60;79.10
12408;DHT22;6268;48.188;17.134;2024-01-27T14:38:26;9.60;78.80
12408;DHT22;6268;48.188;17.134;2024-01-27T14:40:54;9.60;78.70
12408;DHT22;6268;48.188;17.134;2024-01-27T14:43:22;9.70;78.20
12408;DHT22;6268;48.188;17.134;2024-01-27T14:45:51;9.70;78.10
12408;DHT22;6268;48.188;17.134;2024-01-27T14:48:19;9.70;78.20
12408;DHT22;6268;48.188;17.134;2024-01-27T14:50:48;9.70;77.90
12408;DHT22;6268;48.188;17.134;2024-01-27T14:53:21;9.70;78.20
12408;DHT22;6268;48.188;17.134;2024-01-27T14:55:49;9.70;79.20
12408;DHT22;6268;48.188;17.134;2024-01-27T14:58:18;9.50;78.90
12408;DHT22;6268;48.188;17.134;2024-01-27T15:00:46;9.50;80.10
12408;DHT22;6268;48.188;17.134;2024-01-27T15:03:20;9.40;80.70
12408;DHT22;6268;48.188;17.134;2024-01-27T15:05:51;9.40;81.20
12408;DHT22;6268;48.188;17.134;2024-01-27T15:08:22;9.30;81.50
12408;DHT22;6268;48.188;17.134;2024-01-27T15:10:50;9.30;81.70
12408;DHT22;6268;48.188;17.134;2024-01-27T15:13:19;9.40;81.80
12408;DHT22;6268;48.188;17.134;2024-01-27T15:15:51;9.30;82.40
12408;DHT22;6268;48.188;17.134;2024-01-27T15:18:20;9.40;82.50
12408;DHT22;6268;48.188;17.134;2024-01-27T15:20:50;9.30;82.80
12408;DHT22;6268;48.188;17.134;2024-01-27T15:23:18;9.30;83.50
12408;DHT22;6268;48.188;17.134;2024-01-27T15:25:53;9.20;84.30
12408;DHT22;6268;48.188;17.134;2024-01-27T15:28:21;9.20;85.10
12408;DHT22;6268;48.188;17.134;2024-01-27T15:30:49;9.20;85.60
12408;DHT22;6268;48.188;17.134;2024-01-27T15:33:18;9.10;86.60
12408;DHT22;6268;48.188;17.134;2024-01-27T15:35:47;9.00;88.10
12408;DHT22;6268;48.188;17.134;2024-01-27T15:38:15;9.00;99.90
12408;DHT22;6268;48.188;17.134;2024-01-27T15:40:46;9.00;99.90
12408;DHT22;6268;48.188;17.134;2024-01-27T15:43:15;9.20;99.90
12408;DHT22;6268;48.188;17.134;2024-01-27T15:45:44;9.30;99.90
12408;DHT22;6268;48.188;17.134;2024-01-27T15:48:12;9.40;99.90
12408;DHT22;6268;48.188;17.134;2024-01-27T15:50:41;9.40;99.80
12408;DHT22;6268;48.188;17.134;2024-01-27T15:53:11;9.40;94.80
12408;DHT22;6268;48.188;17.134;2024-01-27T15:55:39;9.20;95.50
12408;DHT22;6268;48.188;17.134;2024-01-27T15:58:08;9.20;94.40
12408;DHT22;6268;48.188;17.134;2024-01-27T16:00:38;9.00;94.00
12408;DHT22;6268;48.188;17.134;2024-01-27T16:03:06;9.00;94.20
12408;DHT22;6268;48.188;17.134;2024-01-27T16:05:35;9.00;93.90
12408;DHT22;6268;48.188;17.134;2024-01-27T16:08:04;8.90;94.10
12408;DHT22;6268;48.188;17.134;2024-01-27T16:10:33;8.90;94.00
12408;DHT22;6268;48.188;17.134;2024-01-27T16:13:01;8.70;94.30
12408;DHT22;6268;48.188;17.134;2024-01-27T16:15:30;8.70;94.50
12408;DHT22;6268;48.188;17.134;2024-01-27T16:18:00;8.50;95.00
12408;DHT22;6268;48.188;17.134;2024-01-27T16:20:29;8.50;96.30
12408;DHT22;6268;48.188;17.134;2024-01-27T16:22:57;8.40;96.80
12408;DHT22;6268;48.188;17.134;2024-01-27T16:25:25;8.30;96.70
12408;DHT22;6268;48.188;17.134;2024-01-27T16:27:54;8.30;97.30
12408;DHT22;6268;48.188;17.134;2024-01-27T16:30:24;8.40;97.60
12408;DHT22;6268;48.188;17.134;2024-01-27T16:32:54;8.40;97.90
12408;DHT22;6268;48.188;17.134;2024-01-27T16:35:24;8.40;97.30
12408;DHT22;6268;48.188;17.134;2024-01-27T16:37:52;8.30;97.60
12408;DHT22;6268;48.188;17.134;2024-01-27T16:40:21;8.30;97.60
12408;DHT22;6268;48.188;17.134;2024-01-27T16:42:49;8.30;97.90
12408;DHT22;6268;48.188;17.134;2024-01-27T16:45:18;8.30;97.70
12408;DHT22;6268;48.188;17.134;2024-01-27T16:47:48;8.30;97.70
12408;DHT22;6268;48.188;17.134;2024-01-27T16:50:18;8.40;97.60
12408;DHT22;6268;48.188;17.134;2024-01-27T16:52:51;8.40;98.20
12408;DHT22;6268;48.188;17.134;2024-01-27T16:55:23;8.40;97.90
12408;DHT22;6268;48.188;17.134;2024-01-27T16:57:52;8.40;97.90
12408;DHT22;6268;48.188;17.134;2024-01-27T17:00:21;8.40;97.90
12408;DHT22;6268;48.188;17.134;2024-01-27T17:02:53;8.30;97.90
12408;DHT22;6268;48.188;17.134;2024-01-27T17:05:21;8.20;98.50
12408;DHT22;6268;48.188;17.134;2024-01-27T17:07:51;8.20;99.30
12408;DHT22;6268;48.188;17.134;2024-01-27T17:10:20;8.20;99.30
12408;DHT22;6268;48.188;17.134;2024-01-27T17:12:48;8.20;99.30
12408;DHT22;6268;48.188;17.134;2024-01-27T17:15:17;8.20;99.10
12408;DHT22;6268;48.188;17.134;2024-01-27T17:17:47;8.10;99.30
12408;DHT22;6268;48.188;17.134;2024-01-27T17:20:15;8.10;99.90
12408;DHT22;6268;48.188;17.134;2024-01-27T17:22:44;7.90;99.90
12408;DHT22;6268;48.188;17.134;2024-01-27T17:25:14;7.90;99.90
12408;DHT22;6268;48.188;17.134;2024-01-27T17:27:44;7.90;99.90
12408;DHT22;6268;48.188;17.134;2024-01-27T17:30:13;7.90;99.90
12408;DHT22;6268;48.188;17.134;2024-01-27T17:32:42;7.90;99.90
12408;DHT22;6268;48.188;17.134;2024-01-27T17:35:10;7.80;99.90
12408;DHT22;6268;48.188;17.134;2024-01-27T17:37:39;7.80;99.90
12408;DHT22;6268;48.188;17.134;2024-01-27T17:40:08;7.70;99.90
12408;DHT22;6268;48.188;17.134;2024-01-27T17:42:39;7.70;99.90
12408;DHT22;6268;48.188;17.134;2024-01-27T17:45:08;7.70;99.90
12408;DHT22;6268;48.188;17.134;2024-01-27T17:47:37;7.70;99.90
12408;DHT22;6268;48.188;17.134;2024-01-27T17:50:07;7.60;99.90
12408;DHT22;6268;48.188;17.134;2024-01-27T17:52:37;7.60;99.90
12408;DHT22;6268;48.188;17.134;2024-01-27T17:55:08;7.50;99.90
12408;DHT22;6268;48.188;17.134;2024-01-27T17:57:39;7.50;99.90
12408;DHT22;6268;48.188;17.134;2024-01-27T18:00:12;7.40;99.90
12408;DHT22;6268;48.188;17.134;2024-01-27T18:02:40;7.40;99.90
12408;DHT22;6268;48.188;17.134;2024-01-27T18:05:09;7.40;99.90
12408;DHT22;6268;48.188;17.134;2024-01-27T18:07:40;7.40;99.90
12408;DHT22;6268;48.188;17.134;2024-01-27T18:10:10;7.40;99.90
12408;DHT22;6268;48.188;17.134;2024-01-27T18:12:41;7.30;99.90
12408;DHT22;6268;48.188;17.134;2024-01-27T18:15:10;7.30;99.90
12408;DHT22;6268;48.188;17.134;2024-01-27T18:17:38;7.30;99.90
12408;DHT22;6268;48.188;17.134;2024-01-27T18:20:08;7.30;99.90
12408;DHT22;6268;48.188;17.134;2024-01-27T18:22:37;7.30;99.90
12408;DHT22;6268;48.188;17.134;2024-01-27T18:25:08;7.30;99.90
12408;DHT22;6268;48.188;17.134;2024-01-27T18:27:37;7.30;99.90
12408;DHT22;6268;48.188;17.134;2024-01-27T18:30:12;7.30;99.90
12408;DHT22;6268;48.188;17.134;2024-01-27T18:32:42;7.30;99.90
12408;DHT22;6268;48.188;17.134;2024-01-27T18:35:10;7.30;99.90
12408;DHT22;6268;48.188;17.134;2024-01-27T18:37:39;7.20;99.90
12408;DHT22;6268;48.188;17.134;2024-01-27T18:40:09;7.20;99.90
12408;DHT22;6268;48.188;17.134;2024-01-27T18:42:38;7.20;99.90
12408;DHT22;6268;48.188;17.134;2024-01-27T18:45:07;7.20;99.90
12408;DHT22;6268;48.188;17.134;2024-01-27T18:47:38;7.20;99.90
12408;DHT22;6268;48.188;17.134;2024-01-27T18:50:10;7.20;99.90
12408;DHT22;6268;48.188;17.134;2024-01-27T18:52:39;7.20;99.90
12408;DHT22;6268;48.188;17.134;2024-01-27T18:55:08;7.20;99.90
12408;DHT22;6268;48.188;17.134;2024-01-27T18:57:36;7.20;99.90
12408;DHT22;6268;48.188;17.134;2024-01-27T19:00:06;7.10;99.90
12408;DHT22;6268;48.188;17.134;2024-01-27T19:02:36;7.10;99.90
12408;DHT22;6268;48.188;17.134;2024-01-27T19:05:06;7.10;99.90
12408;DHT22;6268;48.188;17.134;2024-01-27T19:07:35;7.00;99.90
12408;DHT22;6268;48.188;17.134;2024-01-27T19:10:04;7.00;99.90
12408;DHT22;6268;48.188;17.134;2024-01-27T19:12:32;7.00;99.90
12408;DHT22;6268;48.188;17.134;2024-01-27T19:15:00;6.90;99.90
12408;DHT22;6268;48.188;17.134;2024-01-27T19:17:29;6.90;99.90
12408;DHT22;6268;48.188;17.134;2024-01-27T19:19:57;6.80;99.90
12408;DHT22;6268;48.188;17.134;2024-01-27T19:22:27;6.80;99.90
12408;DHT22;6268;48.188;17.134;2024-01-27T19:24:56;6.80;99.90
12408;DHT22;6268;48.188;17.134;2024-01-27T19:27:24;6.80;99.90
12408;DHT22;6268;48.188;17.134;2024-01-27T19:29:53;6.80;99.90
12408;DHT22;6268;48.188;17.134;2024-01-27T19:32:21;6.70;99.90
12408;DHT22;6268;48.188;17.134;2024-01-27T19:34:50;6.70;99.90
12408;DHT22;6268;48.188;17.134;2024-01-27T19:37:19;6.70;99.90
12408;DHT22;6268;48.188;17.134;2024-01-27T19:39:48;6.70;99.90
12408;DHT22;6268;48.188;17.134;2024-01-27T19:42:17;6.70;99.90
12408;DHT22;6268;48.188;17.134;2024-01-27T19:44:45;6.70;99.90
12408;DHT22;6268;48.188;17.134;2024-01-27T19:47:14;6.70;99.90
12408;DHT22;6268;48.188;17.134;2024-01-27T19:49:42;6.60;99.90
12408;DHT22;6268;48.188;17.134;2024-01-27T19:52:11;6.60;99.90
12408;DHT22;6268;48.188;17.134;2024-01-27T19:54:39;6.60;99.90
12408;DHT22;6268;48.188;17.134;2024-01-27T19:57:09;6.60;99.90
12408;DHT22;6268;48.188;17.134;2024-01-27T19:59:39;6.70;99.90
12408;DHT22;6268;48.188;17.134;2024-01-27T20:02:07;6.70;99.90
12408;DHT22;6268;48.188;17.134;2024-01-27T20:04:36;6.60;99.90
12408;DHT22;6268;48.188;17.134;2024-01-27T20:07:04;6.60;99.90
12408;DHT22;6268;48.188;17.134;2024-01-27T20:09:33;6.60;99.90
12408;DHT22;6268;48.188;17.134;2024-01-27T20:12:02;6.60;99.90
12408;DHT22;6268;48.188;17.134;2024-01-27T20:14:32;6.60;99.90
12408;DHT22;6268;48.188;17.134;2024-01-27T20:17:00;6.60;99.90
12408;DHT22;6268;48.188;17.134;2024-01-27T20:19:29;6.60;99.90
12408;DHT22;6268;48.188;17.134;2024-01-27T20:21:57;6.60;99.90
12408;DHT22;6268;48.188;17.134;2024-01-27T20:24:26;6.60;99.90
12408;DHT22;6268;48.188;17.134;2024-01-27T20:26:54;6.60;99.90
12408;DHT22;6268;48.188;17.134;2024-01-27T20:29:23;6.60;99.90
12408;DHT22;6268;48.188;17.134;2024-01-27T20:31:52;6.50;99.90
12408;DHT22;6268;48.188;17.134;2024-01-27T20:34:23;6.50;99.90
12408;DHT22;6268;48.188;17.134;2024-01-27T20:36:51;6.40;99.90
12408;DHT22;6268;48.188;17.134;2024-01-27T20:39:20;6.40;99.90
12408;DHT22;6268;48.188;17.134;2024-01-27T20:41:48;6.40;99.90
12408;DHT22;6268;48.188;17.134;2024-01-27T20:44:17;6.40;99.90
12408;DHT22;6268;48.188;17.134;2024-01-27T20:46:45;6.40;99.90
12408;DHT22;6268;48.188;17.134;2024-01-27T20:49:15;6.40;99.90
12408;DHT22;6268;48.188;17.134;2024-01-27T20:51:43;6.30;99.90
12408;DHT22;6268;48.188;17.134;2024-01-27T20:54:15;6.30;99.90
12408;DHT22;6268;48.188;17.134;2024-01-27T20:56:44;6.30;99.90
12408;DHT22;6268;48.188;17.134;2024-01-27T20:59:12;6.40;99.90
12408;DHT22;6268;48.188;17.134;2024-01-27T21:01:41;6.40;99.90
12408;DHT22;6268;48.188;17.134;2024-01-27T21:04:10;6.40;99.90
12408;DHT22;6268;48.188;17.134;2024-01-27T21:06:40;6.30;99.90
12408;DHT22;6268;48.188;17.134;2024-01-27T21:09:09;6.30;99.90
12408;DHT22;6268;48.188;17.134;2024-01-27T21:11:38;6.20;99.90
12408;DHT22;6268;48.188;17.134;2024-01-27T21:14:06;6.20;99.90
12408;DHT22;6268;48.188;17.134;2024-01-27T21:16:34;6.20;99.90
12408;DHT22;6268;48.188;17.134;2024-01-27T21:19:06;6.20;99.90
12408;DHT22;6268;48.188;17.134;2024-01-27T21:21:34;6.20;99.90
12408;DHT22;6268;48.188;17.134;2024-01-27T21:24:05;6.20;99.90
12408;DHT22;6268;48.188;17.134;2024-01-27T21:26:35;6.10;99.90
12408;DHT22;6268;48.188;17.134;2024-01-27T21:29:03;6.10;99.90
12408;DHT22;6268;48.188;17.134;2024-01-27T21:31:33;6.10;99.90
12408;DHT22;6268;48.188;17.134;2024-01-27T21:34:02;6.00;99.90
12408;DHT22;6268;48.188;17.134;2024-01-27T21:36:31;6.00;99.90
12408;DHT22;6268;48.188;17.134;2024-01-27T21:38:59;6.00;99.90
12408;DHT22;6268;48.188;17.134;2024-01-27T21:41:29;6.00;99.90
12408;DHT22;6268;48.188;17.134;2024-01-27T21:43:58;6.00;99.90
12408;DHT22;6268;48.188;17.134;2024-01-27T21:46:26;6.00;99.90
12408;DHT22;6268;48.188;17.134;2024-01-27T21:48:54;5.90;99.90
12408;DHT22;6268;48.188;17.134;2024-01-27T21:51:23;6.00;99.90
12408;DHT22;6268;48.188;17.134;2024-01-27T21:53:51;5.90;99.90
12408;DHT22;6268;48.188;17.134;2024-01-27T21:56:20;5.80;99.90
12408;DHT22;6268;48.188;17.134;2024-01-27T21:58:51;5.80;99.90
12408;DHT22;6268;48.188;17.134;2024-01-27T22:01:20;5.80;99.90
12408;DHT22;6268;48.188;17.134;2024-01-27T22:03:48;5.70;99.90
12408;DHT22;6268;48.188;17.134;2024-01-27T22:06:17;5.70;99.90
12408;DHT22;6268;48.188;17.134;2024-01-27T22:08:45;5.70;99.90
12408;DHT22;6268;48.188;17.134;2024-01-27T22:11:15;5.60;99.90
12408;DHT22;6268;48.188;17.134;2024-01-27T22:13:43;5.60;99.90
12408;DHT22;6268;48.188;17.134;2024-01-27T22:16:13;5.70;99.90
12408;DHT22;6268;48.188;17.134;2024-01-27T22:18:42;5.70;99.90
12408;DHT22;6268;48.188;17.134;2024-01-27T22:21:11;5.70;99.90
12408;DHT22;6268;48.188;17.134;2024-01-27T22:23:39;5.80;99.90
12408;DHT22;6268;48.188;17.134;2024-01-27T22:26:08;5.80;99.90
12408;DHT22;6268;48.188;17.134;2024-01-27T22:28:38;5.80;99.90
12408;DHT22;6268;48.188;17.134;2024-01-27T22:31:06;5.80;99.90
12408;DHT22;6268;48.188;17.134;2024-01-27T22:33:37;5.70;99.90
12408;DHT22;6268;48.188;17.134;2024-01-27T22:36:06;5.70;99.90
12408;DHT22;6268;48.188;17.134;2024-01-27T22:38:37;5.70;99.90
12408;DHT22;6268;48.188;17.134;2024-01-27T22:41:06;5.70;99.90
12408;DHT22;6268;48.188;17.134;2024-01-27T22:43:34;5.70;99.90
12408;DHT22;6268;48.188;17.134;2024-01-27T22:46:03;5.60;99.90
12408;DHT22;6268;48.188;17.134;2024-01-27T22:48:32;5.70;99.90
12408;DHT22;6268;48.188;17.134;2024-01-27T22:51:02;5.70;99.90
12408;DHT22;6268;48.188;17.134;2024-01-27T22:53:30;5.70;99.90
12408;DHT22;6268;48.188;17.134;2024-01-27T22:55:59;5.70;99.90
12408;DHT22;6268;48.188;17.134;2024-01-27T22:58:27;5.70;99.90
12408;DHT22;6268;48.188;17.134;2024-01-27T23:00:59;5.80;99.90
12408;DHT22;6268;48.188;17.134;2024-01-27T23:03:27;5.80;99.90
12408;DHT22;6268;48.188;17.134;2024-01-27T23:05:56;5.80;99.90
12408;DHT22;6268;48.188;17.134;2024-01-27T23:08:26;5.90;99.90
12408;DHT22;6268;48.188;17.134;2024-01-27T23:10:54;5.90;99.90
12408;DHT22;6268;48.188;17.134;2024-01-27T23:13:23;5.90;99.90
12408;DHT22;6268;48.188;17.134;2024-01-27T23:15:52;5.90;99.90
12408;DHT22;6268;48.188;17.134;2024-01-27T23:18:21;5.90;99.90
12408;DHT22;6268;48.188;17.134;2024-01-27T23:20:49;5.90;99.90
12408;DHT22;6268;48.188;17.134;2024-01-27T23:23:18;5.90;99.90
12408;DHT22;6268;48.188;17.134;2024-01-27T23:25:48;5.90;99.90
12408;DHT22;6268;48.188;17.134;2024-01-27T23:28:16;5.90;99.90
12408;DHT22;6268;48.188;17.134;2024-01-27T23:30:46;5.90;99.90
12408;DHT22;6268;48.188;17.134;2024-01-27T23:33:15;5.90;99.90
12408;DHT22;6268;48.188;17.134;2024-01-27T23:35:47;5.90;99.90
12408;DHT22;6268;48.188;17.134;2024-01-27T23:38:16;5.80;99.90
12408;DHT22;6268;48.188;17.134;2024-01-27T23:40:48;5.80;99.90